Terminal Aerodrome Forecast
Issued by NWS

Home | Current Version | Previous Version | Text Only | Print | Product List | Glossary On
Versions: 1 2 3 4 5 6 7 8 9 10 11 12 13 14 15 16 17 18 19 20 21 22 23
579
FTUS41 KILN 220807 AAA
TAFLCK
TAF AMD
KLCK 220807Z 2208/2306 00000KT 5SM BR VCSH OVC080
     FM220900 VRB03KT 2SM BR VCSH OVC050
     FM221000 VRB03KT 3SM BR VCSH OVC025
     FM221200 19004KT 3SM BR OVC015
     FM221400 19005KT 5SM BR OVC008
     FM221600 20006KT P6SM BKN008
     FM221800 20004KT P6SM BKN015
     FM230300 VRB03KT P6SM BKN008=

USA.gov is the U.S. government's official web portal to all federal, state and local government web resources and services.